FW8379 Weather Reports


Display with metric or nautical units.
time (UTC)temp
F
wind
direction
speed
MPH
gust
MPH
rain 1hr
in
rain 24hr
in
rain mn
in
humidity
%
barometer
mb
20240303200323 21 282 7.0 13.0 0.00 0.00 0.00 97 1005.1
20240303195822 21 257 11.0 11.0 0.00 0.00 0.00 97 1004.8
20240303195320 22 252 8.0 10.0 0.00 0.00 0.00 97 1004.6
20240303194820 21 245 8.0 13.0 0.00 0.00 0.00 97 1004.6
20240303194318 21 289 10.0 16.0 0.00 0.00 0.00 97 1004.8
20240303193816 21 270 9.0 13.0 0.00 0.00 0.00 98 1004.8
20240303193316 21 286 9.0 15.0 0.00 0.00 0.00 98 1004.7
20240303192815 21 264 8.0 13.0 0.00 0.00 0.00 98 1005.1
20240303192315 21 272 5.0 10.0 0.00 0.00 0.00 99 1004.9
20240303191756 21 267 9.0 10.0 0.00 0.00 0.00 98 1005.2
20240303191255 20 273 10.0 11.0 0.00 0.00 0.00 98 1005.1
20240303190754 20 288 9.0 13.0 0.00 0.00 0.00 98 1004.9
20240303190254 20 277 11.0 13.0 0.00 0.00 0.00 98 1004.8
20240303185753 20 278 14.0 17.0 0.00 0.00 0.00 98 1004.6
20240303185251 20 280 8.0 10.0 0.00 0.00 0.00 98 1004.4
20240303184750 20 266 9.0 15.0 0.00 0.00 0.00 98 1004.7
20240303184249 20 266 11.0 16.0 0.00 0.00 0.00 98 1004.4
20240303183747 20 285 10.0 17.0 0.00 0.00 0.00 98 1004.2
20240303183246 20 291 10.0 13.0 0.00 0.00 0.00 99 1004.2
20240303182744 20 284 11.0 15.0 0.00 0.00 0.00 99 1004.1
20240303182243 21 273 13.0 16.0 0.00 0.00 0.00 98 1004.0
20240303181742 21 293 13.0 22.0 0.00 0.00 0.00 99 1003.8
20240303181239 21 273 11.0 16.0 0.00 0.00 0.00 99 1003.8
20240303180737 21 274 8.0 15.0 0.00 0.00 0.00 99 1004.1
20240303180236 21 272 13.0 17.0 0.00 0.00 0.00 99 1004.1
20240303175733 21 278 9.0 13.0 0.00 0.00 0.00 99 1003.8
20240303175229 21 289 14.0 17.0 0.00 0.00 0.00 99 1003.6
20240303174721 21 266 7.0 11.0 0.00 0.00 0.00 99 1003.5
20240303174220 21 271 12.0 18.0 0.00 0.00 0.00 99 1003.6
20240303173718 21 263 14.0 17.0 0.00 0.00 0.00 99 1003.1
20240303173217 21 268 18.0 21.0 0.00 0.00 0.00 99 1002.9
20240303172715 21 269 9.0 10.0 0.00 0.00 0.00 99 1003.1
20240303172215 21 269 10.0 21.0 0.00 0.00 0.00 99 1003.1
20240303171713 21 282 6.0 13.0 0.00 0.00 0.00 99 1002.6
20240303171213 21 258 8.0 10.0 0.00 0.00 0.00 99 1002.9
20240303170711 21 277 11.0 16.0 0.00 0.00 0.00 99 1002.9
20240303170211 22 308 9.0 13.0 0.00 0.00 0.00 99 1002.7
20240303165711 21 264 6.0 11.0 0.00 0.00 0.00 99 1002.6
20240303165210 22 290 8.0 11.0 0.00 0.00 0.00 99 1002.6
20240303164709 22 296 6.0 9.0 0.00 0.00 0.00 99 1002.3
20240303164208 22 275 6.0 9.0 0.00 0.00 0.00 99 1001.9
20240303163707 22 280 5.0 10.0 0.00 0.00 0.00 99 1001.9
20240303163206 22 285 9.0 11.0 0.00 0.00 0.00 99 1001.8
20240303162707 22 302 5.0 8.0 0.00 0.00 0.00 99 1001.9
20240303162206 22 313 3.0 6.0 0.00 0.00 0.00 99 1001.8
20240303161705 23 333 3.0 5.0 0.00 0.00 0.00 99 1002.0
20240303161205 23 300 4.0 5.0 0.00 0.00 0.00 99 1001.9
20240303160704 23 277 0.0 0.0 0.00 0.00 0.00 99 1001.8
20240303160203 22 304 0.0 5.0 0.00 0.00 0.00 99 1001.8
20240303155702 22 278 5.0 16.0 0.00 0.00 0.00 99 1001.6
20240303155201 22 279 3.0 3.0 0.00 0.00 0.00 99 1001.8
20240303154700 22 274 6.0 9.0 0.00 0.00 0.00 99 1001.9
20240303154159 22 308 4.0 5.0 0.00 0.00 0.00 99 1001.6
20240303153659 22 289 4.0 6.0 0.00 0.00 0.00 99 1001.3
20240303153200 22 308 5.0 7.0 0.00 0.00 0.00 99 1001.4
20240303152658 22 290 6.0 8.0 0.00 0.00 0.00 99 1001.6
20240303152157 22 303 7.0 10.0 0.00 0.00 0.00 99 1001.4
20240303151657 21 315 9.0 11.0 0.00 0.00 0.00 99 1001.3
20240303151156 21 306 10.0 11.0 0.00 0.00 0.00 99 1001.3
20240303150656 21 303 8.0 10.0 0.00 0.00 0.00 99 1000.9
20240303150155 21 303 8.0 9.0 0.00 0.00 0.00 99 1000.5
20240303145654 21 293 8.0 10.0 0.00 0.00 0.00 99 1001.2
20240303145153 20 286 8.0 10.0 0.00 0.00 0.00 99 1001.3
20240303144651 20 298 1.0 2.0 0.00 0.00 0.00 99 1001.2
20240303144146 20 308 0.0 0.0 0.00 0.00 0.00 98 1000.5
20240303143645 19 301 0.0 0.0 0.00 0.00 0.00 98 1000.4
20240303143144 19 293 0.0 0.0 0.00 0.00 0.00 98 1000.4
20240303142644 19 288 0.0 2.0 0.00 0.00 0.00 98 1000.3
20240303142141 19 288 3.0 6.0 0.00 0.00 0.00 98 1000.3
20240303141640 19 282 0.0 0.0 0.00 0.00 0.00 98 999.7
20240303141138 19 293 0.0 0.0 0.00 0.00 0.00 98 999.6
20240303140638 19 278 0.0 0.0 0.00 0.00 0.00 98 999.5
20240303140136 19 175 2.0 8.0 0.00 0.00 0.00 98 999.5
20240303135636 19 90 2.0 3.0 0.00 0.00 0.00 98 999.5
20240303135134 18 118 0.0 0.0 0.00 0.00 0.00 98 999.7
20240303134634 18 280 0.0 0.0 0.00 0.00 0.00 98 999.6
20240303134133 18 332 0.0 0.0 0.00 0.00 0.00 98 999.2
20240303133631 18 326 0.0 0.0 0.00 0.00 0.00 98 999.6
20240303133129 18 312 0.0 0.0 0.00 0.00 0.00 98 999.6
20240303132629 18 343 1.0 2.0 0.00 0.00 0.00 98 999.5
20240303132130 17 312 0.0 3.0 0.00 0.00 0.00 97 999.8
20240303131629 17 303 0.0 0.0 0.00 0.00 0.00 97 999.8
20240303131129 17 287 0.0 0.0 0.00 0.00 0.00 97 1000.3
20240303130627 16 300 0.0 1.0 0.00 0.00 0.00 97 999.9
20240303130127 16 293 0.0 2.0 0.00 0.00 0.00 97 1000.1
20240303125627 15 316 0.0 0.0 0.00 0.00 0.00 97 1000.7
20240303125125 15 285 0.0 0.0 0.00 0.00 0.00 97 1000.5
20240303124625 16 268 1.0 6.0 0.00 0.00 0.00 97 1000.8
20240303124125 16 254 1.0 2.0 0.00 0.00 0.00 97 1000.8
20240303123624 17 282 0.0 0.0 0.00 0.00 0.00 97 1000.7
20240303123123 17 291 0.0 0.0 0.00 0.00 0.00 97 1000.4
20240303122623 17 285 0.0 0.0 0.00 0.00 0.00 97 1000.4
20240303122122 16 287 0.0 0.0 0.00 0.00 0.00 97 1000.4
20240303121622 16 287 0.0 0.0 0.00 0.00 0.00 97 1000.3
20240303121121 16 286 0.0 0.0 0.00 0.00 0.00 97 1000.7
20240303120619 16 285 0.0 0.0 0.00 0.00 0.00 97 1000.8
20240303120119 16 288 0.0 0.0 0.00 0.00 0.00 97 1000.8
20240303115618 17 273 0.0 0.0 0.00 0.00 0.00 97 1001.0
20240303115117 17 256 0.0 0.0 0.00 0.00 0.00 97 1000.7
20240303114617 17 273 2.0 3.0 0.00 0.00 0.00 97 1001.2
20240303114116 17 203 1.0 2.0 0.00 0.00 0.00 97 1001.3
20240303113614 17 261 0.0 2.0 0.00 0.00 0.00 97 1001.0
20240303113113 17 225 0.0 5.0 0.00 0.00 0.00 97 1000.8
20240303112612 16 220 0.0 6.0 0.00 0.00 0.00 97 1000.7
20240303112110 15 284 0.0 5.0 0.00 0.00 0.00 97 1000.8
20240303111609 15 305 4.0 5.0 0.00 0.00 0.00 96 1000.9
20240303111108 14 299 1.0 1.0 0.00 0.00 0.00 96 1000.9
20240303110607 15 284 0.0 0.0 0.00 0.00 0.00 96 1000.9
20240303110106 15 284 0.0 1.0 0.00 0.00 0.00 96 1000.8
20240303105605 15 282 0.0 0.0 0.00 0.00 0.00 96 1000.9
20240303105105 14 322 2.0 2.0 0.00 0.00 0.00 96 1000.9
20240303104603 14 295 0.0 0.0 0.00 0.00 0.00 96 1001.0
20240303104102 14 327 0.0 0.0 0.00 0.00 0.00 96 1001.3
20240303103601 14 275 0.0 2.0 0.00 0.00 0.00 96 1001.3
20240303103100 14 272 0.0 2.0 0.00 0.00 0.00 96 1001.0
20240303102559 14 313 1.0 2.0 0.00 0.00 0.00 96 1000.8
20240303102058 12 51 5.0 7.0 0.00 0.00 0.00 96 1000.9
20240303101557 10 308 0.0 0.0 0.00 0.00 0.00 95 1001.6
20240303101056 9 329 0.0 0.0 0.00 0.00 0.00 94 1002.0
20240303100555 8 334 0.0 0.0 0.00 0.00 0.00 94 1002.4
20240303100054 8 308 0.0 0.0 0.00 0.00 0.00 93 1002.5
20240303095554 8 292 0.0 0.0 0.00 0.00 0.00 93 1002.3
20240303095053 8 258 0.0 0.0 0.00 0.00 0.00 93 1002.1
20240303094553 8 281 0.0 0.0 0.00 0.00 0.00 94 1001.8
20240303094054 8 221 0.0 0.0 0.00 0.00 0.00 93 1001.9
20240303093551 8 303 0.0 0.0 0.00 0.00 0.00 94 1001.8
20240303093050 9 294 0.0 0.0 0.00 0.00 0.00 94 1002.0
20240303092548 9 307 0.0 0.0 0.00 0.00 0.00 94 1002.0
20240303092047 9 291 0.0 0.0 0.00 0.00 0.00 94 1001.9
20240303091546 8 320 0.0 0.0 0.00 0.00 0.00 94 1002.1
20240303091044 8 303 0.0 0.0 0.00 0.00 0.00 94 1001.9
20240303090542 8 302 0.0 0.0 0.00 0.00 0.00 94 1001.9
20240303090041 7 329 0.0 0.0 0.00 0.00 0.00 94 1002.1
20240303085541 8 285 0.0 0.0 0.00 0.00 0.00 93 1002.3
20240303085041 9 291 0.0 0.0 0.00 0.00 0.00 94 1002.1
20240303084539 9 265 0.0 0.0 0.00 0.00 0.00 94 1002.5
20240303084037 8 270 0.0 0.0 0.00 0.00 0.00 94 1002.5
20240303083537 8 299 0.0 0.0 0.00 0.00 0.00 94 1002.4
20240303083036 9 284 0.0 2.0 0.00 0.00 0.00 94 1002.9
20240303082534 9 296 3.0 3.0 0.00 0.00 0.00 94 1003.2
20240303082033 10 290 0.0 0.0 0.00 0.00 0.00 94 1003.0
20240303081532 10 344 1.0 2.0 0.00 0.00 0.00 94 1002.6
20240303081028 11 218 0.0 0.0 0.00 0.00 0.00 95 1002.7
20240303080527 11 303 0.0 0.0 0.00 0.00 0.00 95 1002.6
20240303080025 11 251 0.0 2.0 0.00 0.00 0.00 95 1002.7
20240303075524 10 303 0.0 2.0 0.00 0.00 0.00 95 1002.6
20240303075023 9 329 0.0 0.0 0.00 0.00 0.00 94 1003.0
20240303074522 9 312 0.0 0.0 0.00 0.00 0.00 94 1002.9
20240303074021 8 326 0.0 0.0 0.00 0.00 0.00 94 1003.0
20240303073521 8 305 0.0 0.0 0.00 0.00 0.00 94 1003.3
20240303073020 8 308 0.0 0.0 0.00 0.00 0.00 94 1003.2
20240303072519 8 304 0.0 0.0 0.00 0.00 0.00 94 1003.5
20240303072018 8 309 0.0 0.0 0.00 0.00 0.00 94 1003.6
20240303071516 8 292 0.0 0.0 0.00 0.00 0.00 94 1003.2
20240303071015 9 310 0.0 0.0 0.00 0.00 0.00 94 1003.5
20240303070514 10 330 0.0 0.0 0.00 0.00 0.00 94 1003.5
20240303070012 10 291 0.0 0.0 0.00 0.03 0.03 94 1003.7
20240303065511 10 304 0.0 0.0 0.00 0.03 0.03 94 1003.7
20240303065010 10 292 0.0 0.0 0.00 0.03 0.03 94 1003.5
20240303064510 9 307 0.0 0.0 0.00 0.03 0.03 94 1003.6
20240303064009 9 304 0.0 0.0 0.00 0.03 0.03 94 1003.8
20240303063507 10 309 0.0 0.0 0.00 0.03 0.03 94 1004.0
20240303063006 10 300 0.0 0.0 0.00 0.03 0.03 94 1004.0
20240303062506 11 309 0.0 0.0 0.00 0.03 0.03 95 1004.2
20240303062004 12 295 0.0 0.0 0.00 0.03 0.03 95 1004.3
20240303061503 13 295 0.0 0.0 0.00 0.03 0.03 95 1004.0
20240303061002 13 291 0.0 0.0 0.00 0.03 0.03 96 1004.0
20240303060501 14 288 0.0 0.0 0.00 0.03 0.03 96 1003.8
20240303060000 14 291 0.0 0.0 0.00 0.03 0.03 96 1003.8
20240303055458 15 311 0.0 0.0 0.00 0.03 0.03 96 1003.7
20240303054957 15 299 0.0 0.0 0.00 0.03 0.03 96 1003.5
20240303054457 15 304 0.0 0.0 0.00 0.03 0.03 96 1004.0
20240303053957 15 304 0.0 0.0 0.00 0.03 0.03 96 1003.7
20240303053454 15 321 0.0 0.0 0.00 0.03 0.03 97 1003.3
20240303052954 15 336 0.0 0.0 0.00 0.03 0.03 97 1003.3
20240303052453 15 306 0.0 0.0 0.00 0.03 0.03 97 1003.8
20240303051953 15 300 0.0 0.0 0.00 0.03 0.03 97 1004.1
20240303051452 16 301 0.0 0.0 0.00 0.03 0.03 97 1004.3
20240303050950 17 287 0.0 0.0 0.00 0.03 0.03 97 1004.2
20240303050449 17 289 0.0 0.0 0.00 0.03 0.03 97 1004.2
20240303045949 17 284 0.0 0.0 0.00 0.03 0.03 97 1004.0
20240303045447 17 14 0.0 0.0 0.00 0.03 0.03 97 1004.1
20240303044946 17 284 0.0 0.0 0.00 0.03 0.03 97 1004.1
20240303044446 17 256 0.0 0.0 0.00 0.03 0.03 97 1003.8
20240303043945 17 275 0.0 0.0 0.00 0.03 0.03 97 1003.8
20240303043445 17 261 0.0 0.0 0.00 0.03 0.03 97 1003.8
20240303042944 18 288 0.0 0.0 0.00 0.03 0.03 98 1004.2
20240303042442 18 308 0.0 0.0 0.00 0.03 0.03 98 1004.0
20240303041942 18 93 0.0 0.0 0.00 0.03 0.03 98 1004.0
20240303041440 18 5 0.0 0.0 0.00 0.03 0.03 98 1004.0
20240303040938 18 229 0.0 0.0 0.00 0.03 0.03 98 1003.8
20240303040437 18 96 6.0 7.0 0.00 0.03 0.03 98 1004.0
20240303035936 18 117 3.0 3.0 0.00 0.03 0.03 98 1004.3
20240303035434 18 274 0.0 0.0 0.00 0.03 0.03 98 1004.4
20240303034932 18 277 0.0 0.0 0.00 0.03 0.03 98 1004.1
20240303034432 19 272 0.0 0.0 0.00 0.03 0.03 98 1004.2
20240303033931 19 266 0.0 0.0 0.00 0.03 0.03 98 1004.0
20240303033430 19 213 0.0 3.0 0.00 0.03 0.03 98 1003.6
20240303032928 19 265 0.0 1.0 0.00 0.03 0.03 98 1003.5
20240303032426 19 258 0.0 0.0 0.00 0.03 0.03 98 1003.3
20240303031925 19 272 0.0 0.0 0.00 0.03 0.03 98 1002.6
20240303031424 19 312 0.0 0.0 0.00 0.03 0.03 98 1003.1
20240303030922 19 253 0.0 0.0 0.00 0.03 0.03 98 1003.7
20240303030421 19 284 0.0 0.0 0.00 0.03 0.03 98 1003.7
20240303025919 19 290 0.0 0.0 0.00 0.03 0.03 98 1003.5
20240303025419 19 262 0.0 0.0 0.00 0.03 0.03 98 1003.2
20240303024918 19 313 0.0 0.0 0.00 0.03 0.03 98 1002.6
20240303024417 19 290 0.0 2.0 0.00 0.03 0.03 98 1003.0
20240303023915 19 336 1.0 3.0 0.00 0.03 0.03 98 1002.7
20240303023415 19 344 6.0 7.0 0.00 0.03 0.03 98 1003.1
20240303022914 20 353 4.0 8.0 0.00 0.03 0.03 98 1003.3
20240303022413 20 343 4.0 6.0 0.00 0.03 0.03 99 1004.3
20240303021912 20 302 5.0 6.0 0.00 0.03 0.03 99 1004.2
20240303021411 20 306 5.0 6.0 0.00 0.03 0.03 99 1004.2
20240303020910 21 278 4.0 6.0 0.00 0.03 0.03 99 1004.3
20240303020409 21 272 4.0 7.0 0.00 0.03 0.03 99 1004.3
20240303015908 21 302 3.0 5.0 0.00 0.03 0.03 99 1004.1
20240303015407 21 266 5.0 8.0 0.00 0.03 0.03 99 1004.1
20240303014906 21 300 7.0 10.0 0.00 0.03 0.03 99 1003.8
20240303014406 21 320 11.0 16.0 0.00 0.03 0.03 99 1003.7
20240303013905 22 308 13.0 16.0 0.00 0.03 0.03 99 1003.6
20240303013404 23 276 7.0 9.0 0.00 0.03 0.03 99 1003.5
20240303012903 23 295 5.0 7.0 0.00 0.03 0.03 99 1003.2
20240303012402 23 281 4.0 6.0 0.00 0.03 0.03 99 1003.2
20240303011900 23 276 3.0 5.0 0.00 0.03 0.03 99 1002.7
20240303011358 23 278 2.0 3.0 0.00 0.03 0.03 99 1002.3
20240303010857 23 286 2.0 2.0 0.00 0.03 0.03 99 1002.1
20240303010357 23 285 0.0 0.0 0.00 0.03 0.03 99 1002.0
20240303005855 23 287 0.0 0.0 0.00 0.03 0.03 99 1002.1
20240303005355 23 293 0.0 0.0 0.00 0.03 0.03 99 1001.9
20240303004854 23 328 0.0 0.0 0.00 0.03 0.03 99 1001.6
20240303004352 23 306 0.0 0.0 0.00 0.03 0.03 99 1001.5
20240303003851 23 281 0.0 0.0 0.00 0.03 0.03 99 1002.3
20240303003349 23 289 0.0 0.0 0.00 0.03 0.03 99 1001.6
20240303002848 23 316 2.0 5.0 0.00 0.03 0.03 99 1001.4
20240303002347 23 329 3.0 5.0 0.00 0.03 0.03 99 1001.4
20240303001846 23 313 0.0 5.0 0.00 0.03 0.03 99 1001.3
20240303001344 23 331 8.0 9.0 0.00 0.03 0.03 99 1001.6
20240303000843 23 298 5.0 8.0 0.00 0.03 0.03 99 1001.4
20240303000341 23 294 6.0 11.0 0.00 0.03 0.03 99 1001.3
20240302235839 24 304 8.0 10.0 0.00 0.03 0.03 99 1001.5
20240302235338 24 311 15.0 16.0 0.00 0.03 0.03 99 1001.3
20240302234837 25 318 11.0 15.0 0.00 0.03 0.03 99 1001.2
20240302234335 25 309 11.0 15.0 0.00 0.03 0.03 99 1000.9
20240302233835 25 297 13.0 18.0 0.00 0.03 0.03 99 1000.8
20240302233334 25 277 15.0 21.0 0.00 0.03 0.03 99 1000.3
20240302232834 25 293 8.0 15.0 0.00 0.03 0.03 99 999.8
20240302232334 25 306 14.0 16.0 0.00 0.03 0.03 99 999.7
20240302231831 25 275 9.0 21.0 0.00 0.03 0.03 99 999.5
20240302231330 25 291 10.0 11.0 0.00 0.03 0.03 99 999.1
20240302230829 25 324 8.0 13.0 0.00 0.03 0.03 99 999.2
20240302230328 25 307 12.0 20.0 0.00 0.03 0.03 99 999.3
20240302225827 25 270 10.0 17.0 0.00 0.03 0.03 99 999.2
20240302225326 25 266 14.0 21.0 0.00 0.03 0.03 99 999.2
20240302224825 26 273 20.0 24.0 0.00 0.03 0.03 99 998.8
20240302224325 26 292 8.0 21.0 0.00 0.03 0.03 99 999.0
20240302223823 26 271 10.0 14.0 0.00 0.03 0.03 99 998.8
20240302223322 26 289 14.0 17.0 0.00 0.03 0.03 99 998.6
20240302222821 26 262 10.0 13.0 0.00 0.03 0.03 99 998.2
20240302222321 26 291 8.0 10.0 0.00 0.03 0.03 99 998.4
20240302221820 26 255 11.0 15.0 0.00 0.03 0.03 99 998.7
20240302221319 26 292 8.0 13.0 0.00 0.03 0.03 99 998.4
20240302220818 27 284 11.0 14.0 0.00 0.03 0.03 99 998.6
20240302220317 27 279 9.0 14.0 0.00 0.03 0.03 99 998.1
20240302215816 27 289 11.0 15.0 0.00 0.03 0.03 99 998.1
20240302215315 27 256 17.0 22.0 0.00 0.03 0.03 99 998.1
20240302214813 27 279 13.0 20.0 0.00 0.03 0.03 99 997.6
20240302214313 27 284 15.0 21.0 0.00 0.03 0.03 99 997.3
20240302213813 28 278 15.0 23.0 0.00 0.03 0.03 99 997.5
20240302213312 28 280 15.0 24.0 0.00 0.03 0.03 99 997.5
20240302212810 28 313 14.0 22.0 0.00 0.03 0.03 99 997.3
20240302212309 28 283 18.0 22.0 0.00 0.03 0.03 99 996.9
20240302211809 28 291 15.0 24.0 0.00 0.03 0.03 98 996.4
20240302211307 29 280 16.0 25.0 0.00 0.03 0.03 97 996.8
20240302210805 29 259 14.0 23.0 0.00 0.03 0.03 96 996.9
20240302210303 30 283 11.0 23.0 0.00 0.03 0.03 95 997.0
20240302205802 31 293 11.0 17.0 0.00 0.03 0.03 93 996.0
20240302205301 31 281 16.0 20.0 0.04 0.03 0.03 92 996.3
20240302204800 32 281 10.0 22.0 0.04 0.03 0.03 91 996.3
20240302204258 32 289 19.0 27.0 0.07 0.03 0.03 89 996.2
20240302203756 34 273 12.0 16.0 0.07 0.03 0.03 86 996.3
20240302203255 35 207 9.0 17.0 0.04 0.02 0.02 87 996.0
20240302202754 35 204 11.0 14.0 0.04 0.02 0.02 87 996.3
20240302202252 35 148 11.0 13.0 0.00 0.01 0.01 84 995.9
20240302201752 36 195 14.0 18.0 0.00 0.01 0.01 82 995.9
20240302201251 36 189 12.0 18.0 0.07 0.01 0.01 80 996.6
20240302200749 36 227 6.0 9.0 0.00 0.00 0.00 82 996.5